Time;durP1;ratioP1;P1;durP2;ratioP2;P2;SDS_P1;SDS_P2;PMS_P1;PMS_P2;Temp;Humidity;BMP_temperature;BMP_pressure;BME280_temperature;BME280_humidity;BME280_pressure;Samples;Min_cycle;Max_cycle;Signal;HPM_P1;HPM_P2
2023/12/10 00:02:12;;;;;;;6.50;0.60;;;;;;;9.63;81.03;98902.69;10265257;28;20327;-60
2023/12/10 00:07:14;;;;;;;8.75;0.68;;;;;;;9.66;80.70;98911.16;10265503;28;20434;-60
2023/12/10 00:12:15;;;;;;;14.15;1.30;;;;;;;9.67;80.42;98928.06;10266767;28;20051;-61
2023/12/10 00:17:16;;;;;;;13.48;1.20;;;;;;;9.72;80.18;98925.59;10269610;28;20130;-62
2023/12/10 00:22:18;;;;;;;11.23;1.05;;;;;;;9.78;79.86;98948.09;10258061;28;20054;-61
2023/12/10 00:27:19;;;;;;;19.35;1.95;;;;;;;9.81;79.81;98959.25;10255713;28;20039;-60
2023/12/10 00:32:21;;;;;;;12.70;1.10;;;;;;;9.84;79.61;98966.88;10257978;28;20039;-61
2023/12/10 00:37:22;;;;;;;12.73;1.15;;;;;;;9.82;78.86;98965.44;10242649;28;20048;-60
2023/12/10 00:42:24;;;;;;;13.70;2.58;;;;;;;9.71;79.29;98981.09;10240598;28;20395;-60
2023/12/10 00:47:25;;;;;;;13.05;1.15;;;;;;;9.69;78.90;99001.94;10241624;28;20050;-60
2023/12/10 00:52:27;;;;;;;13.93;1.17;;;;;;;9.64;79.35;99008.97;10236266;28;20039;-60
2023/12/10 00:57:28;;;;;;;8.50;1.30;;;;;;;9.64;79.03;99023.22;10236690;28;20059;-60
2023/12/10 01:02:30;;;;;;;13.90;0.82;;;;;;;9.65;79.09;99030.22;10233460;28;20686;-61
2023/12/10 01:07:32;;;;;;;18.30;1.58;;;;;;;9.68;79.17;99062.03;10253180;28;20082;-60
2023/12/10 01:12:36;;;;;;;13.07;1.55;;;;;;;9.62;79.19;99070.88;10235898;28;20138;-60
2023/12/10 01:17:37;;;;;;;9.38;1.67;;;;;;;9.62;79.07;99078.94;10235628;28;20499;-60
2023/12/10 01:22:39;;;;;;;16.83;1.20;;;;;;;9.64;79.08;99076.06;10236026;28;20047;-60
2023/12/10 01:27:40;;;;;;;16.73;2.72;;;;;;;9.64;78.97;99090.28;10237386;28;20047;-59
2023/12/10 01:32:42;;;;;;;14.48;2.20;;;;;;;9.71;78.48;99092.97;10232905;28;20039;-61
2023/12/10 01:37:43;;;;;;;17.95;3.10;;;;;;;9.68;78.68;99110.31;10238609;28;20451;-59
2023/12/10 01:42:46;;;;;;;17.48;1.20;;;;;;;9.70;78.53;99120.88;10235862;28;20579;-60
2023/12/10 01:47:51;;;;;;;12.27;2.17;;;;;;;9.67;78.46;99127.44;10268365;28;20095;-61
2023/12/10 01:52:54;;;;;;;25.42;3.03;;;;;;;9.66;78.27;99130.34;10261896;28;20106;-61
2023/12/10 01:57:55;;;;;;;18.40;2.00;;;;;;;9.64;78.59;99143.13;10275056;28;20114;-62
2023/12/10 02:02:57;;;;;;;16.25;2.10;;;;;;;9.66;78.52;99166.03;10272835;28;20043;-61
2023/12/10 02:07:58;;;;;;;20.58;2.72;;;;;;;9.70;78.40;99172.66;10264767;28;20454;-61
2023/12/10 02:13:02;;;;;;;19.50;2.72;;;;;;;9.77;78.60;99179.91;10265827;28;20043;-61
2023/12/10 02:18:03;;;;;;;17.80;2.53;;;;;;;9.83;78.43;99189.84;10271697;28;20137;-61
2023/12/10 02:23:23;;;;;;;24.48;2.40;;;;;;;9.89;78.01;99191.72;10273148;28;20043;-61
2023/12/10 02:28:25;;;;;;;21.98;2.80;;;;;;;10.03;78.14;99193.47;10265887;28;20450;-61
2023/12/10 02:33:26;;;;;;;13.10;2.22;;;;;;;10.12;77.77;99194.09;10265282;28;20066;-62
2023/12/10 02:38:28;;;;;;;24.55;2.15;;;;;;;10.10;77.83;99188.09;10270561;28;20154;-61
2023/12/10 02:43:29;;;;;;;18.92;2.53;;;;;;;10.06;77.65;99189.53;10269275;28;20058;-61
2023/12/10 02:48:30;;;;;;;15.43;1.73;;;;;;;10.09;77.47;99197.16;10279239;28;20047;-61
2023/12/10 02:53:32;;;;;;;17.50;2.85;;;;;;;10.05;77.22;99210.19;10264805;28;20572;-60
2023/12/10 02:58:35;;;;;;;15.32;1.40;;;;;;;9.90;77.46;99226.44;10235846;28;20047;-60
2023/12/10 03:03:36;;;;;;;12.43;1.52;;;;;;;9.85;76.26;99230.72;10235116;28;20502;-60
2023/12/10 03:08:38;;;;;;;12.93;1.10;;;;;;;9.91;76.21;99228.09;10238067;28;20760;-60
2023/12/10 03:13:39;;;;;;;10.82;1.52;;;;;;;9.87;75.58;99244.78;10233512;28;20055;-63
2023/12/10 03:18:40;;;;;;;19.80;2.00;;;;;;;9.84;75.55;99245.19;10238073;28;20054;-61
2023/12/10 03:23:42;;;;;;;7.05;0.95;;;;;;;9.78;75.61;99243.31;10240569;28;20051;-61
2023/12/10 03:28:43;;;;;;;9.57;0.82;;;;;;;9.67;75.71;99263.47;10244824;28;20055;-61
2023/12/10 03:33:45;;;;;;;7.05;1.52;;;;;;;9.63;75.64;99280.97;10241600;28;20062;-62
2023/12/10 03:38:47;;;;;;;15.23;1.63;;;;;;;9.56;75.56;99278.25;10259239;28;20118;-61
2023/12/10 03:43:48;;;;;;;12.77;1.25;;;;;;;9.59;75.74;99277.84;10247769;28;20118;-62
2023/12/10 03:48:51;;;;;;;10.82;0.73;;;;;;;9.63;75.58;99271.06;10243661;28;20054;-61
2023/12/10 03:53:53;;;;;;;16.38;1.30;;;;;;;9.69;75.69;99280.19;10242620;28;20639;-61
2023/12/10 03:58:54;;;;;;;12.15;1.08;;;;;;;9.70;75.54;99280.00;10243142;28;21010;-61
2023/12/10 04:03:55;;;;;;;18.05;1.30;;;;;;;9.82;75.44;99292.88;10249184;28;20047;-62
2023/12/10 04:08:57;;;;;;;13.02;1.25;;;;;;;9.85;75.87;99298.69;10282119;28;20047;-61
2023/12/10 04:13:58;;;;;;;12.88;1.80;;;;;;;9.81;75.77;99302.75;10283917;28;20043;-62
2023/12/10 04:19:00;;;;;;;11.95;1.27;;;;;;;9.83;75.87;99310.63;10277552;28;20051;-62
2023/12/10 04:24:03;;;;;;;21.67;1.52;;;;;;;9.85;76.05;99324.69;10269221;28;20067;-62
2023/12/10 04:29:04;;;;;;;13.02;1.52;;;;;;;9.86;75.91;99323.66;10268751;28;20054;-62
2023/12/10 04:34:06;;;;;;;10.80;1.13;;;;;;;9.83;75.87;99326.72;10270744;28;20058;-62
2023/12/10 04:39:08;;;;;;;10.77;0.82;;;;;;;9.84;75.72;99333.78;10281317;28;20043;-62
2023/12/10 04:44:10;;;;;;;13.50;0.82;;;;;;;9.85;75.39;99346.16;10278029;28;20051;-62
2023/12/10 04:49:11;;;;;;;10.95;1.45;;;;;;;9.89;75.43;99355.47;10270505;28;20039;-62
2023/12/10 04:54:13;;;;;;;12.68;1.35;;;;;;;9.92;74.97;99355.09;10264670;28;20132;-62
2023/12/10 04:59:14;;;;;;;13.68;1.55;;;;;;;10.01;75.37;99363.81;10265912;28;20079;-62
2023/12/10 05:04:16;;;;;;;10.55;1.23;;;;;;;9.98;74.92;99358.84;10272080;28;20043;-62
2023/12/10 05:09:17;;;;;;;5.03;0.55;;;;;;;10.02;74.99;99368.16;10276226;28;20609;-63
2023/12/10 05:14:19;;;;;;;10.05;0.63;;;;;;;10.02;74.77;99360.94;10275281;28;20079;-62
2023/12/10 05:19:20;;;;;;;11.15;1.27;;;;;;;10.00;74.84;99364.84;10274666;28;20553;-62
2023/12/10 05:24:22;;;;;;;12.07;0.75;;;;;;;9.95;74.69;99378.00;10276659;28;20074;-62
2023/12/10 05:29:23;;;;;;;11.02;0.73;;;;;;;9.92;74.48;99381.94;10274798;28;20051;-62
2023/12/10 05:34:25;;;;;;;15.30;1.67;;;;;;;9.89;74.50;99382.31;10270240;28;20069;-62
2023/12/10 05:39:26;;;;;;;8.30;1.63;;;;;;;9.77;74.57;99383.88;10283722;28;20435;-62
2023/12/10 05:44:28;;;;;;;5.15;0.77;;;;;;;9.74;74.91;99387.78;10264591;28;20043;-62
2023/12/10 05:49:29;;;;;;;10.05;0.73;;;;;;;9.69;75.02;99398.25;10266552;28;20051;-62
2023/12/10 05:54:31;;;;;;;9.55;1.00;;;;;;;9.73;74.84;99416.50;10261688;28;20118;-62
2023/12/10 05:59:32;;;;;;;18.38;1.55;;;;;;;9.78;74.45;99426.63;10261842;28;20039;-62
2023/12/10 06:04:34;;;;;;;12.93;1.55;;;;;;;9.85;74.62;99424.84;10255833;28;20047;-62
2023/12/10 06:09:35;;;;;;;18.25;0.75;;;;;;;9.97;74.59;99432.34;10257802;28;20356;-62
2023/12/10 06:14:37;;;;;;;14.48;1.70;;;;;;;10.04;74.08;99434.06;10259292;28;20139;-62
2023/12/10 06:19:38;;;;;;;26.30;1.77;;;;;;;10.14;74.35;99433.72;10266926;28;20054;-64
2023/12/10 06:24:40;;;;;;;13.68;1.95;;;;;;;10.18;73.54;99434.16;10255839;28;20131;-62
2023/12/10 06:29:42;;;;;;;16.58;2.05;;;;;;;10.18;73.61;99436.84;10254738;28;20047;-60
2023/12/10 06:34:43;;;;;;;12.80;1.63;;;;;;;10.17;73.99;99451.28;10257321;28;20075;-59
2023/12/10 06:39:45;;;;;;;21.60;1.05;;;;;;;10.04;74.05;99462.78;10258555;28;20143;-59
2023/12/10 06:44:46;;;;;;;13.25;1.38;;;;;;;9.88;74.21;99474.63;10247495;28;20044;-59
2023/12/10 06:49:48;;;;;;;21.48;1.17;;;;;;;9.80;74.63;99488.16;10241212;28;20050;-59
2023/12/10 06:54:49;;;;;;;14.15;1.27;;;;;;;9.61;75.32;99490.44;10232116;28;20040;-58
2023/12/10 06:59:51;;;;;;;13.90;1.08;;;;;;;9.57;75.16;99488.34;10244857;28;20410;-58
2023/12/10 07:04:52;;;;;;;22.48;1.42;;;;;;;9.51;75.72;99516.78;10242036;28;20057;-58
2023/12/10 07:09:54;;;;;;;15.13;1.10;;;;;;;9.48;75.60;99526.03;10242293;28;20043;-59
2023/12/10 07:14:55;;;;;;;17.45;2.75;;;;;;;9.49;75.48;99540.28;10248586;28;20041;-65
2023/12/10 07:19:57;;;;;;;15.18;1.85;;;;;;;9.48;75.89;99544.00;10255619;28;20051;-64
2023/12/10 07:24:58;;;;;;;13.65;1.88;;;;;;;9.47;75.82;99556.53;10251315;28;20043;-65
2023/12/10 07:30:00;;;;;;;13.30;1.10;;;;;;;9.52;75.85;99564.88;10258614;28;20047;-66
2023/12/10 07:35:02;;;;;;;20.13;1.48;;;;;;;9.59;75.62;99567.63;10252955;28;20130;-66
2023/12/10 07:40:04;;;;;;;10.65;1.67;;;;;;;9.61;75.72;99568.25;10235895;28;20058;-69
2023/12/10 07:45:06;;;;;;;13.55;1.23;;;;;;;9.61;75.78;99579.00;10238912;28;20058;-68
2023/12/10 07:50:08;;;;;;;10.25;1.23;;;;;;;9.64;75.31;99573.25;10245947;28;20070;-67
2023/12/10 07:55:09;;;;;;;15.38;1.15;;;;;;;9.76;75.44;99583.50;10238749;28;20047;-68
2023/12/10 08:00:11;;;;;;;12.70;0.90;;;;;;;9.79;75.34;99578.56;10235172;28;20161;-67
2023/12/10 08:05:13;;;;;;;16.55;2.17;;;;;;;9.83;75.29;99574.50;10231439;28;20039;-67
2023/12/10 08:10:14;;;;;;;19.75;1.83;;;;;;;9.94;75.34;99573.16;10240783;28;20055;-68
2023/12/10 08:15:16;;;;;;;13.10;1.08;;;;;;;10.02;75.12;99575.72;10255311;28;20410;-67
2023/12/10 08:20:17;;;;;;;7.00;1.02;;;;;;;10.10;75.13;99578.28;10243905;28;20141;-68
2023/12/10 08:25:19;;;;;;;12.90;1.67;;;;;;;10.21;74.88;99586.84;10240046;28;20047;-68
2023/12/10 08:30:20;;;;;;;10.25;1.38;;;;;;;10.28;74.10;99598.47;10236894;28;20059;-68
2023/12/10 08:35:21;;;;;;;14.13;1.17;;;;;;;10.37;73.97;99601.88;10239255;28;20057;-67
2023/12/10 08:40:23;;;;;;;12.20;1.88;;;;;;;10.45;73.50;99612.53;10239910;28;20059;-67
2023/12/10 08:45:24;;;;;;;16.20;1.63;;;;;;;10.58;73.41;99618.00;10256793;28;20047;-66
2023/12/10 08:50:26;;;;;;;12.95;0.95;;;;;;;10.63;72.73;99631.69;10275600;28;20148;-66
2023/12/10 08:55:27;;;;;;;9.85;0.70;;;;;;;10.66;72.61;99634.00;10266232;28;20059;-66
2023/12/10 09:00:29;;;;;;;14.25;1.15;;;;;;;10.74;72.25;99648.31;10250724;28;20114;-66
2023/12/10 09:05:31;;;;;;;11.00;1.23;;;;;;;10.83;71.92;99653.34;10250517;28;20062;-67
2023/12/10 09:10:33;;;;;;;7.75;0.80;;;;;;;10.86;71.54;99661.03;10248919;28;20058;-67
2023/12/10 09:15:35;;;;;;;11.70;1.55;;;;;;;10.86;71.71;99652.13;10244594;28;20086;-67
2023/12/10 09:20:36;;;;;;;15.10;1.42;;;;;;;10.99;70.91;99656.78;10247283;28;20055;-67
2023/12/10 09:25:38;;;;;;;7.50;0.60;;;;;;;11.09;70.87;99651.88;10245192;28;20063;-67
2023/12/10 09:30:40;;;;;;;10.80;0.98;;;;;;;11.15;70.39;99664.53;10246446;28;20112;-68
2023/12/10 09:35:41;;;;;;;16.25;2.40;;;;;;;11.30;70.31;99689.47;10248366;28;20049;-67
2023/12/10 09:40:43;;;;;;;13.18;1.20;;;;;;;11.42;69.69;99676.31;10239887;28;20077;-68
2023/12/10 09:45:44;;;;;;;9.40;1.33;;;;;;;11.50;69.66;99700.38;10245811;28;20044;-67
2023/12/10 09:50:46;;;;;;;12.55;1.33;;;;;;;11.65;69.10;99704.78;10244663;28;20055;-66
2023/12/10 09:55:48;;;;;;;8.32;1.65;;;;;;;11.80;68.96;99710.06;10242344;28;20089;-66
2023/12/10 10:00:50;;;;;;;11.82;1.92;;;;;;;11.96;68.61;99717.00;10231615;28;20051;-66
2023/12/10 10:05:53;;;;;;;11.63;1.00;;;;;;;12.08;68.14;99718.06;10231334;28;20068;-67
2023/12/10 10:10:55;;;;;;;12.43;1.27;;;;;;;12.21;67.99;99723.50;10239809;28;20043;-67
2023/12/10 10:15:56;;;;;;;12.90;1.67;;;;;;;12.31;67.68;99709.66;10233359;28;20039;-67
2023/12/10 10:20:58;;;;;;;11.00;0.98;;;;;;;12.34;67.02;99697.63;10237983;28;20051;-66
2023/12/10 10:26:00;;;;;;;20.73;5.10;;;;;;;12.43;66.88;99694.53;10240728;28;20043;-65
2023/12/10 10:31:02;;;;;;;13.05;1.98;;;;;;;12.56;66.61;99703.69;10248378;28;20522;-67
2023/12/10 10:36:05;;;;;;;11.48;1.35;;;;;;;12.55;66.53;99689.38;10232966;28;20070;-67
2023/12/10 10:41:07;;;;;;;19.45;1.33;;;;;;;12.52;66.12;99705.13;10233936;28;20058;-66
2023/12/10 10:46:09;;;;;;;10.48;1.02;;;;;;;12.57;66.11;99702.66;10230115;28;20052;-66
2023/12/10 10:51:11;;;;;;;12.05;0.90;;;;;;;12.57;65.75;99689.19;10233104;28;20069;-67
2023/12/10 10:56:12;;;;;;;10.60;1.30;;;;;;;12.64;65.72;99707.03;10240687;28;20051;-67
2023/12/10 11:01:36;;;;;;;9.68;0.98;;;;;;;12.73;65.46;99704.94;10237259;28;20209;-66
2023/12/10 11:06:40;;;;;;;6.63;0.82;;;;;;;12.93;64.82;99715.75;10238434;28;20498;-67
2023/12/10 11:11:42;;;;;;;10.43;0.93;;;;;;;12.94;64.47;99716.59;10225422;28;20507;-66
2023/12/10 11:16:43;;;;;;;15.90;1.58;;;;;;;12.97;64.67;99708.09;10229663;28;20471;-67
2023/12/10 11:21:44;;;;;;;8.52;1.10;;;;;;;12.92;64.14;99718.69;10239673;28;20054;-67
2023/12/10 11:26:46;;;;;;;5.05;0.60;;;;;;;13.02;64.08;99719.91;10232269;28;20436;-68
2023/12/10 11:31:49;;;;;;;7.80;0.98;;;;;;;13.12;63.66;99718.69;10230283;28;20559;-68
2023/12/10 11:36:50;;;;;;;8.65;0.77;;;;;;;13.11;63.05;99707.03;10236708;28;20051;-67
2023/12/10 11:41:52;;;;;;;6.20;0.90;;;;;;;13.18;62.70;99709.75;10236250;28;20130;-67
2023/12/10 11:47:06;;;;;;;7.50;0.52;;;;;;;13.22;62.76;99706.41;10254207;28;20055;-66
2023/12/10 11:52:07;;;;;;;10.13;1.55;;;;;;;13.48;62.07;99708.25;10238113;28;20050;-67
2023/12/10 11:57:10;;;;;;;8.68;0.85;;;;;;;13.67;61.76;99708.44;10256012;28;20102;-67
2023/12/10 12:02:14;;;;;;;10.93;1.77;;;;;;;13.73;61.11;99714.88;10243865;28;20086;-67
2023/12/10 12:07:26;;;;;;;9.35;0.70;;;;;;;13.59;60.96;99712.19;10239723;28;20071;-68
2023/12/10 12:12:28;;;;;;;10.93;0.93;;;;;;;13.53;60.68;99723.84;10248686;28;20055;-68
2023/12/10 12:17:30;;;;;;;11.15;0.65;;;;;;;13.31;60.51;99712.47;10250388;28;20079;-70
2023/12/10 12:22:32;;;;;;;10.73;0.80;;;;;;;13.36;60.37;99715.34;10251152;28;20051;-68
2023/12/10 12:27:33;;;;;;;8.18;0.77;;;;;;;13.31;60.44;99717.88;10252612;28;20039;-70
2023/12/10 12:32:35;;;;;;;11.52;0.70;;;;;;;13.35;60.89;99718.25;10251898;28;20189;-69
2023/12/10 12:37:37;;;;;;;11.13;1.10;;;;;;;13.23;60.86;99709.94;10264890;28;20149;-71
2023/12/10 12:42:38;;;;;;;10.45;1.13;;;;;;;13.19;60.93;99704.16;10234690;28;20047;-71
2023/12/10 12:47:40;;;;;;;13.60;1.65;;;;;;;13.24;61.26;99701.63;10259960;28;20062;-69
2023/12/10 12:52:41;;;;;;;11.93;0.93;;;;;;;13.17;61.30;99713.47;10253939;28;20050;-69
2023/12/10 12:57:43;;;;;;;8.52;0.80;;;;;;;13.16;61.24;99712.66;10242013;28;20047;-69
2023/12/10 13:02:45;;;;;;;12.32;1.17;;;;;;;13.03;61.58;99718.88;10244828;28;20499;-68
2023/12/10 13:07:47;;;;;;;10.48;2.03;;;;;;;12.99;61.64;99712.22;10234555;28;20043;-69
2023/12/10 13:12:48;;;;;;;9.98;1.35;;;;;;;12.88;62.17;99721.78;10237499;28;20049;-69
2023/12/10 13:17:50;;;;;;;14.88;1.00;;;;;;;12.86;62.15;99726.56;10262420;28;20043;-69
2023/12/10 13:22:51;;;;;;;9.75;1.25;;;;;;;12.75;62.50;99719.06;10264724;28;20055;-68
2023/12/10 13:27:53;;;;;;;8.20;1.00;;;;;;;12.70;62.77;99721.56;10273723;28;20035;-71
2023/12/10 13:32:54;;;;;;;11.10;1.60;;;;;;;12.58;63.09;99713.25;10255514;28;20075;-69
2023/12/10 13:37:56;;;;;;;10.05;0.77;;;;;;;12.55;62.99;99708.25;10255982;28;20132;-70
2023/12/10 13:42:58;;;;;;;15.55;2.20;;;;;;;12.51;63.38;99707.00;10270116;28;20129;-71
2023/12/10 13:48:00;;;;;;;9.48;1.65;;;;;;;12.48;63.54;99693.94;10250120;28;20051;-70
2023/12/10 13:53:01;;;;;;;15.40;1.80;;;;;;;12.47;64.15;99701.19;10254781;28;20051;-68
2023/12/10 13:58:03;;;;;;;10.95;1.02;;;;;;;12.37;63.95;99714.22;10251703;28;20047;-69
2023/12/10 14:03:04;;;;;;;13.93;1.85;;;;;;;12.27;63.98;99703.00;10247092;28;20062;-70
2023/12/10 14:08:06;;;;;;;9.23;1.23;;;;;;;12.20;64.37;99715.63;10257218;28;20055;-70
2023/12/10 14:13:07;;;;;;;15.77;1.63;;;;;;;12.14;64.42;99713.75;10262324;28;20045;-69
2023/12/10 14:18:09;;;;;;;15.00;2.28;;;;;;;12.12;64.44;99702.34;10264351;28;20049;-69
2023/12/10 14:23:10;;;;;;;12.88;2.25;;;;;;;12.07;64.76;99700.25;10246135;28;20094;-68
2023/12/10 14:28:12;;;;;;;14.20;2.58;;;;;;;12.08;64.66;99696.50;10242468;28;20039;-68
2023/12/10 14:33:13;;;;;;;9.65;1.20;;;;;;;12.06;64.56;99694.00;10243360;28;20482;-66
2023/12/10 14:38:15;;;;;;;14.88;1.00;;;;;;;12.02;64.33;99676.59;10223110;28;20126;-66
2023/12/10 14:43:17;;;;;;;15.95;2.00;;;;;;;12.01;64.66;99674.97;10227460;28;20047;-68
2023/12/10 14:48:21;;;;;;;10.10;1.33;;;;;;;12.00;64.77;99654.41;10258365;28;20051;-68
2023/12/10 14:53:23;;;;;;;12.27;1.42;;;;;;;12.00;64.82;99662.50;10275329;28;20187;-67
2023/12/10 14:58:25;;;;;;;16.40;1.85;;;;;;;11.99;64.58;99658.16;10241907;28;20036;-68
2023/12/10 15:03:26;;;;;;;13.18;1.80;;;;;;;11.99;64.88;99652.78;10239071;28;20050;-65
2023/12/10 15:08:34;;;;;;;12.75;1.58;;;;;;;11.91;65.25;99644.88;10272631;28;20106;-70
2023/12/10 15:13:35;;;;;;;11.98;0.95;;;;;;;11.90;65.37;99657.50;10271300;28;20111;-69
2023/12/10 15:18:37;;;;;;;13.07;0.80;;;;;;;11.83;65.32;99642.34;10276260;28;20071;-70
2023/12/10 15:23:39;;;;;;;16.42;2.58;;;;;;;11.87;65.75;99643.59;10285964;28;20055;-70
2023/12/10 15:28:40;;;;;;;18.27;2.28;;;;;;;11.84;65.30;99644.00;10270919;28;20047;-69
2023/12/10 15:33:42;;;;;;;14.18;1.55;;;;;;;11.88;65.27;99642.56;10290383;28;20043;-69
2023/12/10 15:38:43;;;;;;;10.70;1.63;;;;;;;11.93;65.57;99647.34;10271577;28;20063;-70
2023/12/10 15:43:44;;;;;;;16.80;1.70;;;;;;;11.92;65.86;99645.72;10257265;28;20134;-70
2023/12/10 15:48:46;;;;;;;17.67;2.70;;;;;;;11.87;65.65;99624.75;10239259;28;20068;-70
2023/12/10 15:53:48;;;;;;;11.50;1.15;;;;;;;11.86;65.40;99609.59;10234403;28;20067;-70
2023/12/10 15:58:49;;;;;;;18.95;2.78;;;;;;;11.76;66.27;99614.56;10238269;28;20039;-69
2023/12/10 16:03:50;;;;;;;14.30;1.13;;;;;;;11.78;66.33;99612.47;10228661;28;20047;-70
2023/12/10 16:08:52;;;;;;;8.02;0.88;;;;;;;11.75;66.18;99607.50;10238038;28;20554;-69
2023/12/10 16:13:55;;;;;;;9.20;1.23;;;;;;;11.68;66.53;99621.75;10231345;28;20074;-68
2023/12/10 16:18:56;;;;;;;16.70;1.90;;;;;;;11.69;66.76;99611.84;10246519;28;20044;-61
2023/12/10 16:23:58;;;;;;;17.75;2.45;;;;;;;11.66;66.59;99601.47;10247612;28;20047;-61
2023/12/10 16:29:01;;;;;;;16.10;1.38;;;;;;;11.61;66.74;99599.38;10235838;28;20048;-61
2023/12/10 16:34:03;;;;;;;19.77;2.72;;;;;;;11.55;66.72;99567.03;10231759;28;20479;-61
2023/12/10 16:39:06;;;;;;;7.40;1.27;;;;;;;11.58;66.99;99569.34;10227543;28;20051;-60
2023/12/10 16:44:08;;;;;;;12.70;1.25;;;;;;;11.51;66.94;99545.94;10233170;28;20047;-60
2023/12/10 16:49:10;;;;;;;13.38;0.95;;;;;;;11.49;66.91;99539.06;10238550;28;20055;-61
2023/12/10 16:54:12;;;;;;;12.60;1.60;;;;;;;11.45;66.60;99535.97;10228406;28;20051;-61
2023/12/10 16:59:15;;;;;;;8.52;1.00;;;;;;;11.43;66.73;99526.44;10230673;28;20051;-60
2023/12/10 17:04:17;;;;;;;9.43;1.55;;;;;;;11.40;67.08;99508.00;10229104;28;20054;-60
2023/12/10 17:09:19;;;;;;;17.00;1.88;;;;;;;11.37;66.84;99509.22;10228561;28;20043;-62
2023/12/10 17:14:20;;;;;;;12.57;1.83;;;;;;;11.37;66.28;99501.16;10225480;28;20051;-63
2023/12/10 17:19:22;;;;;;;12.80;1.13;;;;;;;11.43;66.37;99508.44;10246996;28;20051;-62
2023/12/10 17:24:23;;;;;;;10.35;1.35;;;;;;;11.43;66.46;99512.97;10247028;28;20051;-62
2023/12/10 17:29:25;;;;;;;13.80;1.80;;;;;;;11.47;66.07;99506.16;10224575;28;20138;-61
2023/12/10 17:34:26;;;;;;;10.00;1.30;;;;;;;11.49;65.46;99499.56;10229631;28;20043;-61
2023/12/10 17:39:27;;;;;;;14.30;1.42;;;;;;;11.52;65.57;99501.00;10229609;28;20066;-61
2023/12/10 17:44:29;;;;;;;10.55;0.75;;;;;;;11.51;65.16;99500.19;10251284;28;20126;-61
2023/12/10 17:49:33;;;;;;;11.27;1.35;;;;;;;11.56;64.62;99483.41;10219895;28;20122;-63
2023/12/10 17:54:35;;;;;;;11.20;1.13;;;;;;;11.58;64.67;99467.06;10231974;28;20046;-62
2023/12/10 17:59:36;;;;;;;13.68;1.13;;;;;;;11.51;64.87;99446.34;10245148;28;20126;-62
2023/12/10 18:04:38;;;;;;;13.55;0.95;;;;;;;11.51;64.46;99426.66;10230026;28;20046;-61
2023/12/10 18:09:39;;;;;;;10.77;1.38;;;;;;;11.57;64.18;99416.94;10246959;28;20058;-60
2023/12/10 18:14:41;;;;;;;11.95;2.00;;;;;;;11.48;64.20;99392.91;10231057;28;20098;-59
2023/12/10 18:19:43;;;;;;;14.02;1.27;;;;;;;11.38;64.90;99367.47;10234135;28;20487;-59
2023/12/10 18:24:44;;;;;;;10.63;1.40;;;;;;;11.41;64.73;99326.69;10247117;28;20040;-59
2023/12/10 18:29:46;;;;;;;11.18;0.98;;;;;;;11.42;64.64;99298.75;10232709;28;20137;-59
2023/12/10 18:34:47;;;;;;;10.13;1.05;;;;;;;11.38;64.97;99276.81;10224501;28;20054;-59
2023/12/10 18:39:49;;;;;;;9.15;1.30;;;;;;;11.36;65.00;99256.53;10234638;28;20051;-60
2023/12/10 18:44:50;;;;;;;11.50;1.20;;;;;;;11.34;64.64;99245.97;10233880;28;20059;-60
2023/12/10 18:49:52;;;;;;;10.85;1.33;;;;;;;11.36;64.16;99229.63;10229389;28;20076;-60
2023/12/10 18:54:54;;;;;;;10.57;0.93;;;;;;;11.39;64.43;99202.28;10251937;28;20121;-59
2023/12/10 18:59:55;;;;;;;11.70;1.67;;;;;;;11.42;64.20;99186.56;10252723;28;20071;-59
2023/12/10 19:04:56;;;;;;;9.38;1.40;;;;;;;11.41;63.93;99182.19;10233736;28;20036;-60
2023/12/10 19:09:58;;;;;;;7.75;0.80;;;;;;;11.42;63.90;99189.25;10254861;28;20124;-60
2023/12/10 19:14:59;;;;;;;10.85;1.08;;;;;;;11.39;63.87;99180.75;10259347;28;20106;-61
2023/12/10 19:20:03;;;;;;;10.68;1.13;;;;;;;11.20;64.58;99180.59;10257005;28;20071;-61
2023/12/10 19:25:05;;;;;;;15.93;1.15;;;;;;;10.84;65.84;99178.31;10282428;28;20554;-60
2023/12/10 19:30:07;;;;;;;15.68;2.65;;;;;;;10.51;67.03;99161.16;10286715;28;20051;-61
2023/12/10 19:35:09;;;;;;;10.60;1.30;;;;;;;10.17;68.03;99150.50;10267751;28;20040;-61
2023/12/10 19:40:10;;;;;;;10.48;1.08;;;;;;;9.94;68.97;99132.91;10257988;28;20138;-61
2023/12/10 19:45:12;;;;;;;11.10;2.00;;;;;;;9.89;69.37;99121.94;10223016;28;20075;-63
2023/12/10 19:50:13;;;;;;;16.08;1.73;;;;;;;9.87;69.45;99124.00;10261251;28;20043;-61
2023/12/10 19:55:15;;;;;;;9.27;0.60;;;;;;;9.82;70.35;99115.75;10287434;28;20054;-62
2023/12/10 20:00:17;;;;;;;10.88;1.13;;;;;;;9.82;70.37;99110.38;10256974;28;20823;-62
2023/12/10 20:05:18;;;;;;;10.88;0.90;;;;;;;9.85;70.55;99105.44;10251237;28;20043;-63
2023/12/10 20:10:20;;;;;;;8.98;0.65;;;;;;;9.80;70.91;99104.38;10268473;28;20047;-63
2023/12/10 20:15:23;;;;;;;13.48;1.75;;;;;;;9.71;71.24;99096.50;10250520;28;20450;-62
2023/12/10 20:20:25;;;;;;;6.97;1.25;;;;;;;9.71;71.75;99087.63;10267390;28;20047;-62
2023/12/10 20:25:26;;;;;;;7.43;0.93;;;;;;;9.68;72.09;99061.22;10256571;28;20128;-62
2023/12/10 20:30:33;;;;;;;12.57;1.60;;;;;;;9.72;71.98;99038.31;10242377;28;20070;-62
2023/12/10 20:35:35;;;;;;;10.93;1.50;;;;;;;9.73;72.09;99034.56;10247974;28;20043;-61
2023/12/10 20:40:36;;;;;;;9.45;0.95;;;;;;;9.77;72.07;99024.25;10242845;28;20067;-62
2023/12/10 20:45:39;;;;;;;7.50;0.70;;;;;;;9.87;71.89;99014.81;10246469;28;20134;-62
2023/12/10 20:50:41;;;;;;;9.20;0.73;;;;;;;9.97;71.96;99054.63;10229893;28;20106;-61
2023/12/10 20:55:42;;;;;;;10.15;1.40;;;;;;;10.02;72.16;99054.03;10240784;28;20039;-60
2023/12/10 21:00:44;;;;;;;8.85;0.85;;;;;;;10.14;71.91;98998.69;10234097;28;20482;-61
2023/12/10 21:05:46;;;;;;;8.40;0.90;;;;;;;10.23;71.64;99023.47;10227347;28;20035;-60
2023/12/10 21:10:47;;;;;;;13.68;2.10;;;;;;;10.36;71.43;99026.19;10240990;28;20238;-63
2023/12/10 21:15:49;;;;;;;4.82;0.52;;;;;;;10.42;71.46;99025.38;10243944;28;20043;-60
2023/12/10 21:20:50;;;;;;;7.15;0.50;;;;;;;10.52;71.21;99035.69;10242609;28;20055;-60
2023/12/10 21:25:52;;;;;;;6.32;0.82;;;;;;;10.61;71.25;99036.31;10239387;28;20069;-62
2023/12/10 21:30:53;;;;;;;9.90;0.57;;;;;;;10.71;70.90;99029.47;10248226;28;20049;-63
2023/12/10 21:35:56;;;;;;;6.22;0.73;;;;;;;10.81;70.75;99039.78;10234186;28;20054;-59
2023/12/10 21:40:57;;;;;;;6.65;0.50;;;;;;;10.92;70.45;99035.66;10236103;28;20043;-60
2023/12/10 21:45:58;;;;;;;2.13;0.47;;;;;;;10.96;70.50;99057.53;10234254;28;20059;-59
2023/12/10 21:51:00;;;;;;;6.22;0.40;;;;;;;11.04;70.33;99068.91;10236656;28;20078;-60
2023/12/10 21:56:01;;;;;;;8.73;1.23;;;;;;;11.05;70.97;99072.41;10251334;28;20051;-60
2023/12/10 22:01:03;;;;;;;4.03;0.52;;;;;;;11.07;70.16;99070.34;10234327;28;20054;-58
2023/12/10 22:06:06;;;;;;;4.15;0.60;;;;;;;11.08;70.65;99072.00;10219273;28;20081;-59
2023/12/10 22:11:07;;;;;;;8.80;0.52;;;;;;;10.92;71.41;99062.53;10231607;28;20043;-59
2023/12/10 22:16:09;;;;;;;4.72;0.43;;;;;;;10.89;70.77;99061.06;10226003;28;20046;-59
2023/12/10 22:21:11;;;;;;;6.60;1.17;;;;;;;10.89;70.91;99065.63;10228605;28;20103;-59
2023/12/10 22:26:13;;;;;;;7.35;0.60;;;;;;;10.95;70.82;99061.28;10236885;28;20047;-59
2023/12/10 22:31:14;;;;;;;7.65;0.98;;;;;;;10.99;71.06;99079.47;10235324;28;20066;-59
2023/12/10 22:36:16;;;;;;;5.45;0.77;;;;;;;11.08;70.69;99085.44;10232526;28;20058;-60
2023/12/10 22:41:17;;;;;;;3.05;0.40;;;;;;;11.13;71.33;99109.00;10228475;28;20057;-58
2023/12/10 22:46:20;;;;;;;9.35;0.80;;;;;;;10.89;72.12;99116.72;10233263;28;20058;-59
2023/12/10 22:51:21;;;;;;;3.97;0.30;;;;;;;10.68;72.23;99141.94;10234074;28;20055;-59
2023/12/10 22:56:22;;;;;;;2.97;0.38;;;;;;;10.54;72.96;99130.34;10230096;28;20059;-60
2023/12/10 23:01:24;;;;;;;2.97;0.30;;;;;;;10.58;73.03;99112.78;10230367;28;20051;-59
2023/12/10 23:06:25;;;;;;;6.85;0.85;;;;;;;10.67;73.07;99099.97;10231108;28;20071;-59
2023/12/10 23:11:27;;;;;;;4.05;0.50;;;;;;;10.57;73.15;99092.34;10232190;28;20074;-59
2023/12/10 23:16:28;;;;;;;5.72;0.50;;;;;;;10.43;73.47;99104.94;10232627;28;20243;-59